Easthampton, MA (01027)

12:43 PM EDT on September 27, 2016 (GMT -0400)
Florence, MA | | Change Station

Elev 360 ft 42.29 °N, 72.71 °W | Updated 6 seconds ago

Scattered Clouds
Scattered Clouds
67.0 °F
Feels Like 67.0 °F
N
5.0
Wind Variable Wind from ESE
Gusts 7.0 mph

Today
High -- | Low -- °F
--% Chance of Precip.
Yesterday
High -- | Low -- °F
Precip. -- in
Pressure 29.92 in
Visibility 10.0 miles
Clouds Scattered Clouds 1700 ft
Dew Point 49 °F
Humidity 52%
Rainfall 0.40 in
Snow Depth Not available.
6:44 AM 6:38 PM
Waning Crescent, 10% visible
METAR KBAF 271553Z 00000KT 10SM SCT017 19/15 A2991 RMK AO2 SLP130 T01940150
Pressure 29.92 in
Visibility 10.0 miles
Clouds Scattered Clouds 1700 ft
Dew Point 49 °F
Humidity 52%
Rainfall 0.40 in
Snow Depth Not available.
6:44 AM 6:38 PM
Waning Crescent, 10% visible
METAR KBAF 271553Z 00000KT 10SM SCT017 19/15 A2991 RMK AO2 SLP130 T01940150

10-Day Weather Forecast

Almanac

Astronomy

Sep. 27, 2016 Rise Set
Actual Time
Civil Twilight
Nautical Twilight
Astronomical Twilight
Moon
Length of Visible Light
Length of Day
Tomorrow will be .
, % of the Moon is Illuminated

Today's Extremes

State Highs State Lows

Community

WunderPhotos

Upload Photos

1,942,128 photos uploaded!

WunderBlog® & News

Nearby

Air Quality

  Air Quality AQ Index Pollutant
Not available.

Snow Depth

Station Depth Elevation

Earthquake Activity

City Distance Mag. Time & Date
Minimum magnitude displayed is 2.5.

Coastal Water Temperatures

Place Temperature

Stations

Nearby Weather Stations

Station Location Temp. Windchill Dew Point Humidity Wind Precip. Elev Updated Type
                   

Watches & Warnings

There are currently no watches in effect.